Time;durP1;ratioP1;P1;durP2;ratioP2;P2;SDS_P1;SDS_P2;PMS_P1;PMS_P2;Temp;Humidity;BMP_temperature;BMP_pressure;BME280_temperature;BME280_humidity;BME280_pressure;Samples;Min_cycle;Max_cycle;Signal;HPM_P1;HPM_P2
2023/02/03 00:01:16;;;;;;;8.38;3.42;;;;;;;;;;6172668;23;20102;-81
2023/02/03 00:03:45;;;;;;;6.07;3.40;;;;;;;;;;6147387;23;20006;-80
2023/02/03 00:06:17;;;;;;;4.88;2.78;;;;;;;;;;6170613;23;20053;-79
2023/02/03 00:09:00;;;;;;;6.18;3.10;;;;;;;;;;6170305;23;20021;-80
2023/02/03 00:11:30;;;;;;;7.47;3.15;;;;;;;;;;6144588;23;20520;-80
2023/02/03 00:13:58;;;;;;;10.77;3.00;;;;;;;;;;6143687;23;20008;-80
2023/02/03 00:16:25;;;;;;;6.80;3.75;;;;;;;;;;6142301;23;20029;-82
2023/02/03 00:18:52;;;;;;;6.78;3.00;;;;;;;;;;6143080;23;20005;-80
2023/02/03 00:21:20;;;;;;;4.45;2.92;;;;;;;;;;6141064;23;20017;-81
2023/02/03 00:23:51;;;;;;;6.28;2.90;;;;;;;;;;6141241;23;20016;-81
2023/02/03 00:26:28;;;;;;;4.88;2.60;;;;;;;;;;6166131;23;20059;-79
2023/02/03 00:28:55;;;;;;;5.18;3.05;;;;;;;;;;6140384;23;20436;-80
2023/02/03 00:31:23;;;;;;;5.85;2.80;;;;;;;;;;6167657;23;20479;-80
2023/02/03 00:33:56;;;;;;;6.22;2.70;;;;;;;;;;6166832;23;20010;-80
2023/02/03 00:36:30;;;;;;;4.22;2.63;;;;;;;;;;6166084;23;20005;-80
2023/02/03 00:39:03;;;;;;;7.38;2.83;;;;;;;;;;6140700;23;20015;-80
2023/02/03 00:41:34;;;;;;;6.75;3.15;;;;;;;;;;6142719;23;20036;-80
2023/02/03 00:44:05;;;;;;;4.53;2.42;;;;;;;;;;6171280;23;20001;-80
2023/02/03 00:46:35;;;;;;;9.38;3.63;;;;;;;;;;6147510;23;20494;-80
2023/02/03 00:49:02;;;;;;;5.30;2.42;;;;;;;;;;6140868;23;20420;-80
2023/02/03 00:51:30;;;;;;;6.78;3.08;;;;;;;;;;6140479;23;20001;-81
2023/02/03 00:53:57;;;;;;;5.15;2.97;;;;;;;;;;6141006;23;20012;-81
2023/02/03 00:56:25;;;;;;;6.25;2.78;;;;;;;;;;6141191;23;20504;-81
2023/02/03 00:58:52;;;;;;;5.20;2.88;;;;;;;;;;6142849;23;20013;-80
2023/02/03 01:01:19;;;;;;;5.28;2.80;;;;;;;;;;6142532;23;20069;-81
2023/02/03 01:03:49;;;;;;;5.80;2.58;;;;;;;;;;6143205;23;20001;-80
2023/02/03 01:06:19;;;;;;;5.47;3.03;;;;;;;;;;6144641;23;20009;-81
2023/02/03 01:08:50;;;;;;;5.40;3.22;;;;;;;;;;6171954;23;20085;-80
2023/02/03 01:11:37;;;;;;;7.80;3.63;;;;;;;;;;6150575;23;20016;-81
2023/02/03 01:14:07;;;;;;;5.80;2.80;;;;;;;;;;6178371;23;20006;-81
2023/02/03 01:16:56;;;;;;;;;;;;;;;;;;;;;
2023/02/03 01:19:39;;;;;;;4.30;2.53;;;;;;;;;;6183455;23;20009;-82
2023/02/03 01:22:39;;;;;;;4.50;2.83;;;;;;;;;;6146922;23;20069;-82
2023/02/03 01:25:11;;;;;;;4.45;2.92;;;;;;;;;;6173518;23;19997;-82
2023/02/03 01:27:38;;;;;;;6.73;3.07;;;;;;;;;;6173279;23;20013;-81
2023/02/03 01:30:09;;;;;;;6.20;2.95;;;;;;;;;;6168133;23;20016;-81
2023/02/03 01:33:39;;;;;;;;;;;;;;;;;;;;;
2023/02/03 01:36:37;;;;;;;6.78;3.00;;;;;;;;;;6170555;23;20010;-82
2023/02/03 01:39:29;;;;;;;5.95;2.92;;;;;;;;;;6172188;23;20010;-82
2023/02/03 01:42:06;;;;;;;10.23;3.63;;;;;;;;;;6145240;23;20005;-81
2023/02/03 01:44:50;;;;;;;5.82;3.20;;;;;;;;;;6170819;23;20013;-83
2023/02/03 01:47:34;;;;;;;8.18;2.97;;;;;;;;;;6145989;23;20036;-81
2023/02/03 01:50:13;;;;;;;7.05;3.05;;;;;;;;;;6145252;23;20065;-81
2023/02/03 01:52:41;;;;;;;6.22;3.90;;;;;;;;;;6145933;23;20020;-82
2023/02/03 01:55:12;;;;;;;6.28;3.92;;;;;;;;;;6145139;23;20016;-81
2023/02/03 01:57:52;;;;;;;8.57;3.72;;;;;;;;;;6171451;23;20024;-81
2023/02/03 02:00:26;;;;;;;7.53;3.70;;;;;;;;;;6165744;23;20017;-81
2023/02/03 02:03:08;;;;;;;9.27;3.45;;;;;;;;;;6172325;23;20002;-82
2023/02/03 02:05:57;;;;;;;8.48;3.95;;;;;;;;;;6171854;23;20028;-83
2023/02/03 02:09:00;;;;;;;10.52;3.67;;;;;;;;;;6168113;23;20005;-81
2023/02/03 02:11:30;;;;;;;8.32;3.95;;;;;;;;;;6170210;23;20017;-80
2023/02/03 02:14:18;;;;;;;10.55;4.85;;;;;;;;;;6146481;23;20005;-80
2023/02/03 02:17:41;;;;;;;12.02;3.83;;;;;;;;;;6171133;23;20029;-82
2023/02/03 02:20:44;;;;;;;8.50;3.75;;;;;;;;;;6112707;23;20017;-80
2023/02/03 02:23:39;;;;;;;6.80;3.85;;;7.40;99.90;;;;;;6162233;23;20002;-80
2023/02/03 02:26:44;;;;;;;7.50;4.20;;;;;;;;;;6139672;23;20099;-80
2023/02/03 02:29:27;;;;;;;7.43;4.10;;;;;;;;;;6157522;23;20013;-81
2023/02/03 02:32:19;;;;;;;9.77;4.22;;;7.40;99.90;;;;;;6140010;23;20005;-81
2023/02/03 02:35:16;;;;;;;6.53;4.07;;;;;;;;;;6154898;23;20008;-80
2023/02/03 02:38:26;;;;;;;7.00;4.15;;;;;;;;;;6165801;23;20033;-80
2023/02/03 02:42:11;;;;;;;13.00;4.18;;;7.60;99.90;;;;;;6077012;23;20014;-80
2023/02/03 02:45:28;;;;;;;8.75;3.85;;;;;;;;;;6051897;23;20043;-81
2023/02/03 02:48:18;;;;;;;7.53;3.78;;;;;;;;;;6050712;23;20463;-81
2023/02/03 02:50:48;;;;;;;8.02;4.38;;;;;;;;;;6029433;23;20010;-81
2023/02/03 02:53:21;;;;;;;8.88;4.03;;;;;;;;;;6059041;23;20366;-80
2023/02/03 02:56:12;;;;;;;6.43;3.80;;;;;;;;;;6060502;23;20011;-81
2023/02/03 02:58:40;;;;;;;7.00;3.58;;;;;;;;;;6116251;23;20029;-81
2023/02/03 03:01:10;;;;;;;7.68;3.67;;;;;;;;;;6142514;23;20006;-80
2023/02/03 03:03:43;;;;;;;8.07;3.70;;;;;;;;;;6165927;23;20012;-80
2023/02/03 03:06:28;;;;;;;7.50;3.47;;;;;;;;;;6141585;23;20009;-81
2023/02/03 03:09:02;;;;;;;6.82;3.75;;;;;;;;;;6142671;23;20085;-80
2023/02/03 03:11:42;;;;;;;8.35;3.95;;;;;;;;;;6167785;23;20001;-80
2023/02/03 03:14:14;;;;;;;9.07;3.97;;;;;;;;;;6140801;23;20008;-82
2023/02/03 03:17:00;;;;;;;8.43;3.88;;;;;;;;;;6141815;23;20005;-81
2023/02/03 03:19:44;;;;;;;8.68;3.65;;;;;;;;;;6142360;23;20019;-80
2023/02/03 03:22:18;;;;;;;6.97;3.53;;;;;;;;;;6142246;23;20317;-82
2023/02/03 03:24:50;;;;;;;8.35;3.95;;;;;;;;;;6144709;23;20008;-82
2023/02/03 03:27:38;;;;;;;11.98;4.38;;;;;;;;;;6143902;23;20001;-80
2023/02/03 03:30:36;;;;;;;8.55;3.72;;;;;;;;;;6106842;23;20010;-81
2023/02/03 03:33:04;;;;;;;8.15;4.28;;;;;;;;;;6167431;23;20061;-80
2023/02/03 03:35:38;;;;;;;8.80;3.67;;;;;;;;;;6143422;23;20057;-79
2023/02/03 03:38:19;;;;;;;7.13;3.78;;;;;;;;;;6144594;23;20002;-80
2023/02/03 03:41:10;;;;;;;7.65;3.40;;;;;;;;;;6147256;23;20356;-83
2023/02/03 03:44:05;;;;;;;7.35;4.35;;;;;;;;;;6141355;23;20013;-82
2023/02/03 03:46:55;;;;;;;8.25;3.97;;;;;;;;;;6166010;23;20001;-80
2023/02/03 03:49:22;;;;;;;9.25;3.63;;;;;;;;;;6138090;23;20008;-82
2023/02/03 03:51:56;;;;;;;5.43;3.50;;;;;;;;;;6137903;23;20440;-80
2023/02/03 03:54:50;;;;;;;7.75;3.55;;;;;;;;;;6138428;23;20006;-82
2023/02/03 03:57:36;;;;;;;7.07;3.50;;;;;;;;;;6165576;23;20009;-80
2023/02/03 04:00:32;;;;;;;9.65;4.13;;;;;;;;;;6168738;23;20024;-80
2023/02/03 04:03:30;;;;;;;9.75;4.20;;;;;;;;;;6170688;23;20033;-80
2023/02/03 04:05:58;;;;;;;8.20;3.78;;;;;;;;;;6171620;23;20489;-80
2023/02/03 04:08:27;;;;;;;10.32;3.85;;;;;;;;;;6143499;23;20005;-80
2023/02/03 04:11:04;;;;;;;9.38;4.28;;;;;;;;;;6144218;23;20005;-80
2023/02/03 04:13:32;;;;;;;8.60;3.60;;;;;;;;;;6169973;23;20494;-81
2023/02/03 04:16:24;;;;;;;8.05;3.85;;;;;;;;;;6167823;23;20036;-81
2023/02/03 04:18:52;;;;;;;5.78;4.15;;;;;;;;;;6173585;23;20001;-80
2023/02/03 04:21:19;;;;;;;6.38;3.80;;;;;;;;;;6144275;23;20005;-82
2023/02/03 04:24:12;;;;;;;11.77;4.03;;;;;;;;;;6145091;23;20033;-82
2023/02/03 04:26:50;;;;;;;8.15;3.70;;;;;;;;;;6170495;23;20028;-81
2023/02/03 04:29:21;;;;;;;6.78;4.10;;;;;;;;;;6144535;23;20009;-80
2023/02/03 04:31:47;;;;;;;;;;;7.50;99.90;;;;;;6145549;23;20036;-81
2023/02/03 04:34:20;;;;;;;8.10;3.92;;;;;;;;;;6170045;23;20311;-82
2023/02/03 04:36:53;;;;;;;7.80;4.40;;;;;;;;;;6144792;23;20002;-82
2023/02/03 04:39:47;;;;;;;8.82;3.97;;;;;;;;;;6144575;23;20353;-80
2023/02/03 04:42:14;;;;;;;9.93;4.20;;;;;;;;;;6167962;23;20001;-81
2023/02/03 04:44:40;;;;;;;7.07;3.60;;;;;;;;;;6145489;23;20002;-83
2023/02/03 04:47:18;;;;;;;8.07;4.32;;;;;;;;;;6145097;23;20009;-81
2023/02/03 04:49:46;;;;;;;10.82;5.68;;;;;;;;;;6171993;23;20033;-81
2023/02/03 04:52:15;;;;;;;7.68;4.28;;;;;;;;;;6145660;23;20010;-80
2023/02/03 04:54:51;;;;;;;8.10;3.73;;;;;;;;;;6170985;23;20008;-82
2023/02/03 04:57:24;;;;;;;10.38;3.72;;;;;;;;;;6168415;23;20463;-81
2023/02/03 04:59:53;;;;;;;9.15;3.60;;;;;;;;;;6145240;23;20002;-82
2023/02/03 05:02:57;;;;;;;5.50;4.13;;;;;;;;;;6144344;23;20012;-82
2023/02/03 05:05:44;;;;;;;6.63;3.90;;;;;;;;;;6157029;23;20014;-80
2023/02/03 05:08:31;;;;;;;5.55;3.13;;;;;;;;;;6147079;23;20013;-81
2023/02/03 05:11:02;;;;;;;6.32;3.38;;;;;;;;;;6154830;23;20040;-81
2023/02/03 05:14:17;;;;;;;5.90;3.03;;;;;;;;;;6141333;23;20018;-81
2023/02/03 05:17:08;;;;;;;9.27;3.78;;;;;;;;;;6135523;23;20061;-81
2023/02/03 05:19:54;;;;;;;;;;;;;;;;;;6141640;23;20013;-81
2023/02/03 05:26:06;;;;;;;8.60;3.28;;;;;;;;;;6139018;23;20021;-81
2023/02/03 05:28:37;;;;;;;6.05;3.33;;;;;;;;;;6136552;23;20049;-82
2023/02/03 05:31:36;;;;;;;8.32;3.03;;;;;;;;;;6116177;23;20006;-81
2023/02/03 05:34:10;;;;;;;8.98;3.50;;;;;;;;;;6138849;23;20017;-81
2023/02/03 05:36:54;;;;;;;5.25;2.78;;;;;;;;;;6139413;23;20053;-81
2023/02/03 05:39:22;;;;;;;7.95;3.22;;;;;;;;;;6116657;23;20062;-81
2023/02/03 05:41:54;;;;;;;8.23;3.28;;;;;;;;;;6116542;23;20009;-81
2023/02/03 05:44:50;;;;;;;5.43;3.30;;;;;;;;;;6138898;23;20041;-80
2023/02/03 05:47:17;;;;;;;5.90;3.33;;;;;;;;;;6142082;23;20005;-81
2023/02/03 06:27:50;;;;;;;7.03;3.75;;;;;;;;;;6185050;23;20020;-81
2023/02/03 10:15:17;;;;;;;2.28;1.52;;;7.90;99.90;;;;;;6203360;23;20025;-82
2023/02/03 10:18:31;;;;;;;3.03;1.63;;;8.00;99.90;;;;;;6184277;23;20013;-81
2023/02/03 10:24:12;;;;;;;3.13;1.80;;;;;;;;;;6175944;23;20029;-81
2023/02/03 10:27:00;;;;;;;2.53;1.33;;;;;;;;;;6176195;23;20009;-82
2023/02/03 10:32:43;;;;;;;10.02;2.58;;;;;;;;;;6152502;23;20036;-82
2023/02/03 10:35:37;;;;;;;2.83;1.50;;;;;;;;;;6160787;23;20005;-82
2023/02/03 10:38:52;;;;;;;3.78;1.50;;;;;;;;;;6149102;23;20008;-81
2023/02/03 10:41:50;;;;;;;2.80;1.40;;;;;;;;;;6176610;23;20094;-81
2023/02/03 10:44:20;;;;;;;2.47;1.50;;;;;;;;;;6170597;23;20075;-80
2023/02/03 10:46:50;;;;;;;3.20;1.65;;;;;;;;;;6164365;23;20080;-81
2023/02/03 10:49:23;;;;;;;3.90;1.35;;;;;;;;;;6164281;23;20009;-81
2023/02/03 10:52:27;;;;;;;4.88;1.83;;;;;;;;;;6164938;23;20010;-81
2023/02/03 10:58:09;;;;;;;2.67;1.30;;;;;;;;;;6105877;23;20043;-81
2023/02/03 11:00:39;;;;;;;3.72;1.58;;;;;;;;;;6143257;23;20010;-81
2023/02/03 11:19:05;;;;;;;3.42;1.83;;;;;;;;;;6226760;23;20021;-81
2023/02/03 11:21:43;;;;;;;1.52;1.02;;;;;;;;;;6203761;23;20028;-83
2023/02/03 11:24:28;;;;;;;2.30;1.63;;;;;;;;;;6228990;23;20005;-82
2023/02/03 11:27:26;;;;;;;2.10;1.38;;;;;;;;;;6224575;23;20001;-83
2023/02/03 11:30:23;;;;;;;2.13;1.20;;;8.40;99.90;;;;;;6228907;23;20001;-83
2023/02/03 11:32:56;;;;;;;2.90;1.13;;;;;;;;;;6227870;23;20011;-82
2023/02/03 11:35:39;;;;;;;4.25;1.40;;;;;;;;;;6229765;23;20035;-80
2023/02/03 11:38:41;;;;;;;1.92;1.10;;;;;;;;;;6194432;23;20086;-80
2023/02/03 11:41:14;;;;;;;3.92;1.50;;;;;;;;;;6204735;23;20009;-80
2023/02/03 11:43:46;;;;;;;2.83;1.45;;;;;;;;;;6231516;23;20409;-81
2023/02/03 11:46:15;;;;;;;1.90;1.13;;;;;;;;;;6235307;23;20001;-81
2023/02/03 12:02:41;;;;;;;3.80;1.10;;;;;;;;;;6131716;23;20096;-80
2023/02/03 12:05:27;;;;;;;4.68;1.40;;;;;;;;;;6158868;23;20020;-80
2023/02/03 12:07:56;;;;;;;2.75;1.20;;;;;;;;;;6137956;23;20005;-80
2023/02/03 12:10:26;;;;;;;2.22;1.10;;;;;;;;;;6138779;23;20002;-81
2023/02/03 12:13:04;;;;;;;3.05;1.17;;;;;;;;;;6138115;23;20013;-81
2023/02/03 12:15:33;;;;;;;2.15;1.15;;;;;;;;;;6135792;23;20010;-81
2023/02/03 12:18:05;;;;;;;3.00;1.02;;;;;;;;;;6163353;23;20009;-80
2023/02/03 12:20:39;;;;;;;1.85;0.98;;;;;;;;;;6136697;23;20009;-85
2023/02/03 12:23:16;;;;;;;2.65;1.10;;;;;;;;;;6136757;23;20511;-80
2023/02/03 12:25:45;;;;;;;1.83;0.90;;;;;;;;;;6161098;23;19997;-80
2023/02/03 12:28:21;;;;;;;4.63;2.13;;;;;;;;;;6135359;23;20012;-80
2023/02/03 12:30:50;;;;;;;2.88;1.52;;;;;;;;;;6135070;23;20029;-81
2023/02/03 12:33:22;;;;;;;2.33;1.00;;;;;;;;;;6136040;23;20020;-80
2023/02/03 12:35:59;;;;;;;2.60;1.15;;;;;;;;;;6136037;23;20005;-80
2023/02/03 12:38:35;;;;;;;4.55;1.17;;;;;;;;;;6160702;23;20006;-80
2023/02/03 12:41:05;;;;;;;2.03;1.10;;;;;;;;;;6136215;23;20009;-80
2023/02/03 12:43:49;;;;;;;2.05;1.17;;;;;;;;;;6134858;23;20005;-81
2023/02/03 12:47:04;;;;;;;1.60;0.95;;;;;;;;;;6152237;23;20020;-82
2023/02/03 12:50:21;;;;;;;5.30;1.30;;;;;;;;;;6085611;23;20010;-82
2023/02/03 12:53:17;;;;;;;1.92;1.10;;;;;;;;;;6088533;23;20014;-82
2023/02/03 12:55:49;;;;;;;2.25;1.20;;;;;;;;;;6078684;23;20014;-81
2023/02/03 12:59:04;;;;;;;2.50;1.10;;;;;;;;;;6169874;23;20009;-82
2023/02/03 13:02:35;;;;;;;3.13;1.50;;;8.70;99.90;;;;;;6175262;23;20013;-82
2023/02/03 13:05:24;;;;;;;1.83;1.00;;;;;;;;;;6161986;23;20001;-82
2023/02/03 13:08:20;;;;;;;1.75;0.90;;;;;;;;;;6171510;23;20051;-82
2023/02/03 13:11:25;;;;;;;2.33;1.35;;;;;;;;;;6172153;23;20009;-82
2023/02/03 13:17:54;;;;;;;2.75;1.00;;;;;;;;;;6181920;23;20017;-82
2023/02/03 13:20:52;;;;;;;2.70;1.00;;;;;;;;;;6049112;23;20008;-81
2023/02/03 13:23:47;;;;;;;1.83;1.08;;;;;;;;;;6071769;23;20006;-83
2023/02/03 13:26:33;;;;;;;6.15;1.00;;;;;;;;;;6170080;23;20006;-81
2023/02/03 13:29:20;;;;;;;1.73;1.20;;;;;;;;;;6149606;23;20002;-81
2023/02/03 13:32:13;;;;;;;3.03;1.27;;;;;;;;;;6150023;23;20006;-82
2023/02/03 13:35:16;;;;;;;3.53;1.60;;;8.80;99.90;;;;;;6164470;23;20052;-81
2023/02/03 13:38:36;;;;;;;2.75;1.60;;;;;;;;;;6175490;23;20001;-82
2023/02/03 13:41:13;;;;;;;1.77;1.10;;;;;;;;;;6173178;23;20456;-83
2023/02/03 13:43:48;;;;;;;2.70;1.15;;;;;;;;;;6147407;23;20002;-81
2023/02/03 13:46:35;;;;;;;1.70;1.10;;;;;;;;;;6171575;23;20020;-82
2023/02/03 13:49:05;;;;;;;3.00;1.30;;;;;;;;;;6174075;23;20024;-82
2023/02/03 13:51:50;;;;;;;2.13;1.20;;;;;;;;;;6147631;23;20013;-81
2023/02/03 13:54:31;;;;;;;2.60;1.27;;;;;;;;;;6172154;23;20016;-82
2023/02/03 13:57:01;;;;;;;3.78;1.30;;;;;;;;;;6142206;23;20005;-82
2023/02/03 13:59:39;;;;;;;2.22;1.20;;;;;;;;;;6144558;23;20010;-82
2023/02/03 14:02:18;;;;;;;3.17;1.25;;;;;;;;;;6172668;23;20005;-82
2023/02/03 14:04:45;;;;;;;4.35;1.60;;;;;;;;;;6146808;23;20061;-82
2023/02/03 14:07:28;;;;;;;6.55;1.80;;;;;;;;;;6175038;23;19998;-83
2023/02/03 14:10:37;;;;;;;3.63;1.95;;;;;;;;;;6179644;23;20014;-82
2023/02/03 14:13:44;;;;;;;2.65;1.48;;;;;;;;;;6112541;23;19999;-83
2023/02/03 14:16:55;;;;;;;3.35;1.55;;;;;;;;;;6096978;23;20029;-82
2023/02/03 14:19:33;;;;;;;2.63;1.42;;;;;;;;;;6179567;23;20025;-83
2023/02/03 14:22:26;;;;;;;4.75;2.10;;;;;;;;;;6167453;23;20037;-82
2023/02/03 14:25:30;;;;;;;2.10;1.05;;;;;;;;;;6178768;23;19981;-83
2023/02/03 14:28:04;;;;;;;2.55;1.30;;;;;;;;;;6154357;23;19989;-83
2023/02/03 14:30:52;;;;;;;3.33;1.33;;;;;;;;;;6155024;23;20021;-82
2023/02/03 14:33:48;;;;;;;2.40;1.30;;;;;;;;;;6153657;23;20065;-83
2023/02/03 14:37:25;;;;;;;2.35;1.30;;;;;;;;;;6180219;23;20013;-83
2023/02/03 14:40:32;;;;;;;3.05;1.65;;;;;;;;;;6155082;23;20389;-81
2023/02/03 14:43:21;;;;;;;3.28;1.35;;;;;;;;;;6119995;23;20003;-82
2023/02/03 14:46:12;;;;;;;3.25;1.65;;;;;;;;;;6118073;23;20018;-82
2023/02/03 14:49:35;;;;;;;4.60;1.70;;;;;;;;;;6121926;23;20030;-82
2023/02/03 14:52:58;;;;;;;3.00;1.52;;;9.00;99.90;;;;;;6005626;23;20045;-83
2023/02/03 14:55:33;;;;;;;2.70;1.50;;;;;;;;;;6010761;23;20057;-83
2023/02/03 14:58:35;;;;;;;3.80;1.60;;;;;;;;;;6106806;23;20600;-84
2023/02/03 15:01:28;;;;;;;2.00;1.30;;;;;;;;;;6181902;23;20002;-83
2023/02/03 15:04:19;;;;;;;3.40;1.65;;;;;;;;;;6154943;23;20012;-82
2023/02/03 15:07:28;;;;;;;4.03;1.67;;;;;;;;;;6178001;23;20020;-83
2023/02/03 15:09:59;;;;;;;3.45;1.40;;;;;;;;;;6152576;23;20017;-82
2023/02/03 15:12:30;;;;;;;3.33;1.70;;;;;;;;;;6154231;23;20001;-82
2023/02/03 15:15:18;;;;;;;4.28;1.98;;;;;;;;;;6154129;23;20027;-83
2023/02/03 15:17:52;;;;;;;3.15;1.92;;;;;;;;;;6179394;23;19989;-82
2023/02/03 15:20:41;;;;;;;2.88;1.65;;;;;;;;;;6179631;23;19994;-82
2023/02/03 15:23:24;;;;;;;2.50;1.58;;;;;;;;;;6152617;23;20002;-84
2023/02/03 15:26:02;;;;;;;3.50;1.70;;;;;;;;;;6153434;23;20005;-83
2023/02/03 15:28:30;;;;;;;3.00;1.60;;;;;;;;;;6177940;23;19994;-82
2023/02/03 15:31:13;;;;;;;2.72;1.60;;;;;;;;;;6152916;23;20019;-83
2023/02/03 15:33:43;;;;;;;4.47;1.80;;;;;;;;;;6153676;23;19995;-83
2023/02/03 15:36:19;;;;;;;3.75;1.58;;;;;;;;;;6154084;23;20032;-82
2023/02/03 15:38:49;;;;;;;2.50;1.65;;;;;;;;;;6180314;23;19997;-83
2023/02/03 15:41:25;;;;;;;2.90;1.60;;;;;;;;;;6179337;23;20017;-82
2023/02/03 15:43:56;;;;;;;6.82;2.70;;;;;;;;;;6180431;23;20018;-82
2023/02/03 15:46:29;;;;;;;;;;;8.70;99.90;;;;;;6182121;23;19989;-83
2023/02/03 15:49:11;;;;;;;3.40;1.55;;;;;;;;;;6157490;23;19896;-82
2023/02/03 15:51:42;;;;;;;2.72;1.70;;;;;;;;;;6154748;23;20013;-83
2023/02/03 15:54:39;;;;;;;2.85;1.33;;;;;;;;;;6180136;23;20012;-83
2023/02/03 15:57:10;;;;;;;3.72;1.50;;;;;;;;;;6154964;23;20002;-82
2023/02/03 15:59:50;;;;;;;4.78;3.05;;;;;;;;;;6155303;23;20029;-83
2023/02/03 16:02:41;;;;;;;2.63;1.55;;;;;;;;;;6179518;23;20017;-84
2023/02/03 16:08:53;;;;;;;3.90;1.52;;;;;;;;;;6088906;23;20021;-82
2023/02/03 16:11:48;;;;;;;3.30;1.70;;;;;;;;;;6004232;23;20012;-83
2023/02/03 16:14:38;;;;;;;2.72;1.40;;;;;;;;;;6060428;23;20023;-82
2023/02/03 16:17:49;;;;;;;3.17;1.90;;;;;;;;;;6063500;23;20019;-81
2023/02/03 16:20:36;;;;;;;2.70;1.63;;;;;;;;;;6066410;23;20132;-82
2023/02/03 16:26:37;;;;;;;2.88;1.73;;;;;;;;;;6060480;23;20023;-83
2023/02/03 16:51:42;;;;;;;2.92;1.75;;;;;;;;;;6172547;23;20029;-82
2023/02/03 16:54:23;;;;;;;3.60;2.00;;;;;;;;;;6166621;23;20014;-81
2023/02/03 16:56:50;;;;;;;4.40;2.55;;;;;;;;;;6175864;23;20009;-81
2023/02/03 16:59:17;;;;;;;4.50;2.25;;;;;;;;;;6152569;23;20069;-80
2023/02/03 17:02:04;;;;;;;3.33;1.98;;;;;;;;;;6144206;23;19993;-80
2023/02/03 17:04:46;;;;;;;5.28;2.35;;;;;;;;;;6146752;23;20033;-80
2023/02/03 17:07:21;;;;;;;4.00;2.33;;;;;;;;;;6172886;23;20005;-81
2023/02/03 17:09:54;;;;;;;4.70;2.20;;;;;;;;;;6170520;23;20001;-78
2023/02/03 17:12:29;;;;;;;4.55;2.20;;;;;;;;;;6150013;23;20005;-80
2023/02/03 17:14:57;;;;;;;5.65;2.67;;;;;;;;;;6148978;23;20001;-80
2023/02/03 17:17:28;;;;;;;6.13;2.42;;;;;;;;;;6168940;23;20063;-80
2023/02/03 17:19:55;;;;;;;4.80;2.30;;;;;;;;;;6142495;23;20016;-80
2023/02/03 17:22:22;;;;;;;3.63;2.10;;;;;;;;;;6146623;23;20056;-80
2023/02/03 17:24:50;;;;;;;3.17;2.13;;;;;;;;;;6174117;23;20025;-80
2023/02/03 17:27:23;;;;;;;7.13;3.95;;;;;;;;;;6173137;23;20323;-80
2023/02/03 17:30:04;;;;;;;3.95;2.42;;;8.60;99.90;;;;;;6173221;23;19985;-81
2023/02/03 17:32:45;;;;;;;6.80;3.00;;;;;;;;;;6177257;23;20392;-80
2023/02/03 17:35:14;;;;;;;3.88;2.42;;;;;;;;;;6134877;23;20065;-80
2023/02/03 17:38:01;;;;;;;4.05;2.05;;;;;;;;;;6153791;23;20005;-80
2023/02/03 17:41:03;;;;;;;4.32;2.28;;;;;;;;;;6175940;23;20108;-81
2023/02/03 17:55:41;;;;;;;6.47;3.03;;;;;;;;;;6076760;23;20017;-81
2023/02/03 20:54:33;;;;;;;7.05;4.50;;;9.00;99.90;;;;;;6146286;23;20048;-80
2023/02/03 21:01:12;;;;;;;7.05;4.25;;;9.10;99.90;;;;;;6060279;23;20433;-80
2023/02/03 23:09:34;;;;;;;7.90;5.22;;;;;;;;;;6202248;23;20017;-82
2023/02/03 23:12:43;;;;;;;8.68;4.72;;;;;;;;;;6195251;23;20020;-81
2023/02/03 23:15:58;;;;;;;12.18;6.57;;;;;;;;;;6144561;23;20009;-83
2023/02/03 23:24:26;;;;;;;7.18;4.68;;;;;;;;;;6209922;23;20007;-83
2023/02/03 23:26:57;;;;;;;9.13;5.53;;;;;;;;;;6157936;23;20039;-80
2023/02/03 23:30:04;;;;;;;10.80;6.18;;;;;;;;;;6133078;23;19997;-82
2023/02/03 23:46:16;;;;;;;9.40;4.97;;;;;;;;;;6203091;23;20005;-83
2023/02/03 23:49:25;;;;;;;8.27;5.65;;;;;;;;;;6167235;23;19997;-80
2023/02/03 23:52:34;;;;;;;8.63;5.10;;;;;;;;;;6204965;23;20001;-81
2023/02/03 23:55:44;;;;;;;8.15;4.85;;;;;;;;;;6198698;23;20036;-81
